CSCL Long Beach — VRCZ7 — position and weather

sailwx.info

Track history (hours):
 
Tides and Currents Weather Stations Pressure Air Temp Water Temp Dewpoint Dewpoint Depression Visibility Wind Speed Wind Dir Waves Ship Positions

CSCL Long Beach

Last reported at 2014-Jul-29 21:33 UTC. Time now 2014-Jul-30 19:23 UTC.
Position N 31°08' E 032°19'.

Length 336.7 m; beam 45.6 m; draft 15 m.

Type: Cargo ship. MMSI: 477883900.

Date/timePositionNaut miles runAvg speedWind from/ knotsBaromVisibWave heightAir tempDewpointWater temp
2014-Jul-29 21:33N 31°08' E 032°19'9 8.8
2014-Jul-29 20:33N 31°16' E 032°21'9 7.4
2014-Jul-29 19:19N 31°25' E 032°20'1 0.1
2014-Jul-29 13:33N 31°25' E 032°20'9 9.3
2014-Jul-29 12:33N 31°32' E 032°12'1414.1
2014-Jul-29 11:33N 31°42' E 032°00'1413.9
2014-Jul-29 10:33N 31°52' E 031°48'1615.7
2014-Jul-29 09:33N 32°02' E 031°35'1615.5
2014-Jul-29 08:33N 32°13' E 031°22'1615.7
2014-Jul-29 07:33N 32°24' E 031°08'1515.1
2014-Jul-29 06:33N 32°32' E 030°53'1515.4
2014-Jul-29 05:33N 32°36' E 030°35'1515.2
2014-Jul-29 04:33N 32°40' E 030°18'1515.1
2014-Jul-29 03:33N 32°44' E 030°01'2014.9
2014-Jul-29 02:11N 32°48' E 029°37'914.7
2014-Jul-29 01:34N 32°51' E 029°27'1514.9
2014-Jul-29 00:33N 32°55' E 029°10'1815.3
2014-Jul-28 23:23N 33°00' E 028°49'1315.3
2014-Jul-28 22:33N 33°03' E 028°34'1515.1
2014-Jul-28 21:33N 33°07' E 028°17'1515.2
2014-Jul-28 20:34N 33°11' E 027°59'1515.1
2014-Jul-28 19:33N 33°15' E 027°42'1514.9
2014-Jul-28 18:33N 33°19' E 027°25'1515.3
2014-Jul-28 17:33N 33°23' E 027°07'1615.5
2014-Jul-28 16:33N 33°27' E 026°49'1615.5
2014-Jul-28 15:32N 33°32' E 026°31'1515.6
2014-Jul-28 14:33N 33°36' E 026°13'1615.7
2014-Jul-28 13:33N 33°40' E 025°55'1515.4
2014-Jul-28 12:33N 33°43' E 025°37'1919.3
2014-Jul-28 11:33N 33°48' E 025°15'2416.7
2014-Jul-28 10:06N 33°55' E 024°46'7115.3
2014-Jul-28 05:30N 34°13' E 023°24'15115.1
2014-Jul-27 19:30N 34°52' E 020°27'1515.2
2014-Jul-27 18:30N 34°56' E 020°09'22715.2
2014-Jul-27 03:33N 35°57' E 015°40'1515.3
2014-Jul-27 02:34N 36°01' E 015°22'3315.4
2014-Jul-27 00:24N 36°10' E 014°42'1315.5
2014-Jul-26 23:33N 36°13' E 014°26'1515.5
2014-Jul-26 22:34N 36°17' E 014°08'1515.1
2014-Jul-26 21:33N 36°23' E 013°51'1515.3
2014-Jul-26 20:33N 36°29' E 013°33'1615.6
2014-Jul-26 19:33N 36°35' E 013°15'1616.2
2014-Jul-26 18:33N 36°41' E 012°57'1616.3
2014-Jul-26 17:34N 36°48' E 012°38'1615.8
2014-Jul-26 16:33N 36°54' E 012°20'12915.6
2014-Jul-26 08:19N 37°48' E 009°53'1316.0
2014-Jul-26 07:31N 37°50' E 009°37'2016.2
2014-Jul-26 06:17N 37°54' E 009°12'1416.0
2014-Jul-26 05:23N 37°54' E 008°54'1416.0
2014-Jul-26 04:32N 37°54' E 008°36'1616.1
2014-Jul-26 03:33N 37°54' E 008°16'1615.7
2014-Jul-26 02:32N 37°53' E 007°56'7515.1
2014-Jul-25 21:33N 37°49' E 006°21'1614.7
2014-Jul-25 20:27N 37°48' E 006°01'1414.8
2014-Jul-25 19:32N 37°47' E 005°43'1715.2
2014-Jul-25 18:24N 37°46' E 005°22'7614.9
2014-Jul-25 13:17N 37°42' E 003°46'4014.7
2014-Jul-25 10:32N 37°38' E 002°55'1815.7
2014-Jul-25 09:22N 37°33' E 002°33'1923.1
2014-Jul-25 08:33N 37°27' E 002°11'2524.7
2014-Jul-25 07:32N 37°19' E 001°40'6019.2
2014-Jul-25 04:24N 36°59' E 000°29'1315.4
2014-Jul-25 03:33N 36°54' E 000°14'1515.3
2014-Jul-25 02:33N 36°49' W 000°04'1515.1
2014-Jul-25 01:33N 36°45' W 000°22'1514.9
2014-Jul-25 00:33N 36°40' W 000°39'1615.0
2014-Jul-24 23:31N 36°35' W 000°58'1515.8
2014-Jul-24 22:32N 36°30' W 001°16'1515.3
2014-Jul-24 21:33N 36°25' W 001°34'1515.3
2014-Jul-24 20:33N 36°20' W 001°52'1615.5
2014-Jul-24 19:30N 36°15' W 002°11'1415.0
2014-Jul-24 18:33N 36°13' W 002°28'25716.1
2014-Jul-24 02:34N 36°14' W 007°46'1616.0
2014-Jul-24 01:32N 36°18' W 008°06'1616.0
2014-Jul-24 00:34N 36°22' W 008°25'1615.8
2014-Jul-23 23:33N 36°26' W 008°44'1615.6
2014-Jul-23 22:34N 36°30' W 009°02'1615.6
2014-Jul-23 21:34N 36°36' W 009°20'1615.8
2014-Jul-23 20:33N 36°48' W 009°33'1716.5
2014-Jul-23 19:33N 37°04' W 009°39'1716.8
2014-Jul-23 18:33N 37°20' W 009°43'1716.7
2014-Jul-23 17:33N 37°36' W 009°48'1616.2
2014-Jul-23 16:33N 37°52' W 009°53'1716.6
2014-Jul-23 15:33N 38°09' W 009°57'1616.4
2014-Jul-23 14:33N 38°25' W 010°01'1616.3
2014-Jul-23 13:33N 38°41' W 010°05'1616.5
2014-Jul-23 12:33N 38°57' W 010°07'1716.5
2014-Jul-23 11:32N 39°14' W 010°07'2016.5
2014-Jul-23 10:19N 39°34' W 010°07'77314.9
2014-Jul-21 06:31N 50°26' W 000°20'1715.7
2014-Jul-21 05:27N 50°30' E 000°05'1315.0
2014-Jul-21 04:33N 50°34' E 000°25'1514.8
2014-Jul-21 03:33N 50°41' E 000°46'1615.8
2014-Jul-21 02:33N 50°50' E 001°07'1717.0
2014-Jul-21 01:34N 51°01' E 001°27'1717.1
2014-Jul-21 00:33N 51°13' E 001°46'1515.1
2014-Jul-20 23:33N 51°25' E 002°02'1514.7
2014-Jul-20 22:31N 51°22' E 002°26'1313.3
2014-Jul-20 21:33N 51°25' E 002°46'1515.2
2014-Jul-20 20:33N 51°23' E 003°10'2 1.7
2014-Jul-20 19:30N 51°21' E 003°11'0 0.0
2014-Jul-20 18:30N 51°21' E 003°11'0 0.0
2014-Jul-20 17:30N 51°21' E 003°11'0 0.0
2014-Jul-20 16:30N 51°21' E 003°11'0 0.0
2014-Jul-20 15:30N 51°21' E 003°11'0 0.0
2014-Jul-20 14:30N 51°21' E 003°11'0 0.0
2014-Jul-20 13:24N 51°21' E 003°11'0 0.0
2014-Jul-20 12:33N 51°21' E 003°11'0 0.0
2014-Jul-20 11:24N 51°21' E 003°11'0 0.0
2014-Jul-20 10:30N 51°21' E 003°11'0 0.0
2014-Jul-20 09:33N 51°21' E 003°11'0 0.0
2014-Jul-20 08:33N 51°21' E 003°11'0 0.0
2014-Jul-20 07:30N 51°21' E 003°11'0 0.0
2014-Jul-20 06:33N 51°21' E 003°11'0 0.0
2014-Jul-20 05:33N 51°21' E 003°11'0 0.0
2014-Jul-20 04:33N 51°21' E 003°11'0 0.0
2014-Jul-20 03:33N 51°21' E 003°11'0 0.0
2014-Jul-20 02:33N 51°21' E 003°11'0 0.0
2014-Jul-20 01:33N 51°21' E 003°11'0 0.0
2014-Jul-20 00:33N 51°21' E 003°11'0 0.0
2014-Jul-19 23:33N 51°21' E 003°11'0 0.0
2014-Jul-19 22:33N 51°21' E 003°11'  
Track history (hours):
 
Tides and Currents Weather Stations Pressure Air Temp Water Temp Dewpoint Dewpoint Depression Visibility Wind Speed Wind Dir Waves Ship Positions

CSCL Long Beach

Last reported at 2014-Jul-29 21:33 UTC. Time now 2014-Jul-30 19:23 UTC.
Position N 31°08' E 032°19'.

Length 336.7 m; beam 45.6 m; draft 15 m.

Type: Cargo ship. MMSI: 477883900.

Date/timePositionNaut miles runAvg speedWind from/ knotsBaromVisibWave heightAir tempDewpointWater temp
2014-Jul-29 21:33N 31°08' E 032°19'9 8.8
2014-Jul-29 20:33N 31°16' E 032°21'9 7.4
2014-Jul-29 19:19N 31°25' E 032°20'1 0.1
2014-Jul-29 13:33N 31°25' E 032°20'9 9.3
2014-Jul-29 12:33N 31°32' E 032°12'1414.1
2014-Jul-29 11:33N 31°42' E 032°00'1413.9
2014-Jul-29 10:33N 31°52' E 031°48'1615.7
2014-Jul-29 09:33N 32°02' E 031°35'1615.5
2014-Jul-29 08:33N 32°13' E 031°22'1615.7
2014-Jul-29 07:33N 32°24' E 031°08'1515.1
2014-Jul-29 06:33N 32°32' E 030°53'1515.4
2014-Jul-29 05:33N 32°36' E 030°35'1515.2
2014-Jul-29 04:33N 32°40' E 030°18'1515.1
2014-Jul-29 03:33N 32°44' E 030°01'2014.9
2014-Jul-29 02:11N 32°48' E 029°37'914.7
2014-Jul-29 01:34N 32°51' E 029°27'1514.9
2014-Jul-29 00:33N 32°55' E 029°10'1815.3
2014-Jul-28 23:23N 33°00' E 028°49'1315.3
2014-Jul-28 22:33N 33°03' E 028°34'1515.1
2014-Jul-28 21:33N 33°07' E 028°17'1515.2
2014-Jul-28 20:34N 33°11' E 027°59'1515.1
2014-Jul-28 19:33N 33°15' E 027°42'1514.9
2014-Jul-28 18:33N 33°19' E 027°25'1515.3
2014-Jul-28 17:33N 33°23' E 027°07'1615.5
2014-Jul-28 16:33N 33°27' E 026°49'1615.5
2014-Jul-28 15:32N 33°32' E 026°31'1515.6
2014-Jul-28 14:33N 33°36' E 026°13'1615.7
2014-Jul-28 13:33N 33°40' E 025°55'1515.4
2014-Jul-28 12:33N 33°43' E 025°37'1919.3
2014-Jul-28 11:33N 33°48' E 025°15'2416.7
2014-Jul-28 10:06N 33°55' E 024°46'7115.3
2014-Jul-28 05:30N 34°13' E 023°24'15115.1
2014-Jul-27 19:30N 34°52' E 020°27'1515.2
2014-Jul-27 18:30N 34°56' E 020°09'22715.2
2014-Jul-27 03:33N 35°57' E 015°40'1515.3
2014-Jul-27 02:34N 36°01' E 015°22'3315.4
2014-Jul-27 00:24N 36°10' E 014°42'1315.5
2014-Jul-26 23:33N 36°13' E 014°26'1515.5
2014-Jul-26 22:34N 36°17' E 014°08'1515.1
2014-Jul-26 21:33N 36°23' E 013°51'1515.3
2014-Jul-26 20:33N 36°29' E 013°33'1615.6
2014-Jul-26 19:33N 36°35' E 013°15'1616.2
2014-Jul-26 18:33N 36°41' E 012°57'1616.3
2014-Jul-26 17:34N 36°48' E 012°38'1615.8
2014-Jul-26 16:33N 36°54' E 012°20'12915.6
2014-Jul-26 08:19N 37°48' E 009°53'1316.0
2014-Jul-26 07:31N 37°50' E 009°37'2016.2
2014-Jul-26 06:17N 37°54' E 009°12'1416.0
2014-Jul-26 05:23N 37°54' E 008°54'1416.0
2014-Jul-26 04:32N 37°54' E 008°36'1616.1
2014-Jul-26 03:33N 37°54' E 008°16'1615.7
2014-Jul-26 02:32N 37°53' E 007°56'7515.1
2014-Jul-25 21:33N 37°49' E 006°21'1614.7
2014-Jul-25 20:27N 37°48' E 006°01'1414.8
2014-Jul-25 19:32N 37°47' E 005°43'1715.2
2014-Jul-25 18:24N 37°46' E 005°22'7614.9
2014-Jul-25 13:17N 37°42' E 003°46'4014.7
2014-Jul-25 10:32N 37°38' E 002°55'1815.7
2014-Jul-25 09:22N 37°33' E 002°33'1923.1
2014-Jul-25 08:33N 37°27' E 002°11'2524.7
2014-Jul-25 07:32N 37°19' E 001°40'6019.2
2014-Jul-25 04:24N 36°59' E 000°29'1315.4
2014-Jul-25 03:33N 36°54' E 000°14'1515.3
2014-Jul-25 02:33N 36°49' W 000°04'1515.1
2014-Jul-25 01:33N 36°45' W 000°22'1514.9
2014-Jul-25 00:33N 36°40' W 000°39'1615.0
2014-Jul-24 23:31N 36°35' W 000°58'1515.8
2014-Jul-24 22:32N 36°30' W 001°16'1515.3
2014-Jul-24 21:33N 36°25' W 001°34'1515.3
2014-Jul-24 20:33N 36°20' W 001°52'1615.5
2014-Jul-24 19:30N 36°15' W 002°11'1415.0
2014-Jul-24 18:33N 36°13' W 002°28'25716.1
2014-Jul-24 02:34N 36°14' W 007°46'1616.0
2014-Jul-24 01:32N 36°18' W 008°06'1616.0
2014-Jul-24 00:34N 36°22' W 008°25'1615.8
2014-Jul-23 23:33N 36°26' W 008°44'1615.6
2014-Jul-23 22:34N 36°30' W 009°02'1615.6
2014-Jul-23 21:34N 36°36' W 009°20'1615.8
2014-Jul-23 20:33N 36°48' W 009°33'1716.5
2014-Jul-23 19:33N 37°04' W 009°39'1716.8
2014-Jul-23 18:33N 37°20' W 009°43'1716.7
2014-Jul-23 17:33N 37°36' W 009°48'1616.2
2014-Jul-23 16:33N 37°52' W 009°53'1716.6
2014-Jul-23 15:33N 38°09' W 009°57'1616.4
2014-Jul-23 14:33N 38°25' W 010°01'1616.3
2014-Jul-23 13:33N 38°41' W 010°05'1616.5
2014-Jul-23 12:33N 38°57' W 010°07'1716.5
2014-Jul-23 11:32N 39°14' W 010°07'2016.5
2014-Jul-23 10:19N 39°34' W 010°07'77314.9
2014-Jul-21 06:31N 50°26' W 000°20'1715.7
2014-Jul-21 05:27N 50°30' E 000°05'1315.0
2014-Jul-21 04:33N 50°34' E 000°25'1514.8
2014-Jul-21 03:33N 50°41' E 000°46'1615.8
2014-Jul-21 02:33N 50°50' E 001°07'1717.0
2014-Jul-21 01:34N 51°01' E 001°27'1717.1
2014-Jul-21 00:33N 51°13' E 001°46'1515.1
2014-Jul-20 23:33N 51°25' E 002°02'1514.7
2014-Jul-20 22:31N 51°22' E 002°26'1313.3
2014-Jul-20 21:33N 51°25' E 002°46'1515.2
2014-Jul-20 20:33N 51°23' E 003°10'2 1.7
2014-Jul-20 19:30N 51°21' E 003°11'0 0.0
2014-Jul-20 18:30N 51°21' E 003°11'0 0.0
2014-Jul-20 17:30N 51°21' E 003°11'0 0.0
2014-Jul-20 16:30N 51°21' E 003°11'0 0.0
2014-Jul-20 15:30N 51°21' E 003°11'0 0.0
2014-Jul-20 14:30N 51°21' E 003°11'0 0.0
2014-Jul-20 13:24N 51°21' E 003°11'0 0.0
2014-Jul-20 12:33N 51°21' E 003°11'0 0.0
2014-Jul-20 11:24N 51°21' E 003°11'0 0.0
2014-Jul-20 10:30N 51°21' E 003°11'0 0.0
2014-Jul-20 09:33N 51°21' E 003°11'0 0.0
2014-Jul-20 08:33N 51°21' E 003°11'0 0.0
2014-Jul-20 07:30N 51°21' E 003°11'0 0.0
2014-Jul-20 06:33N 51°21' E 003°11'0 0.0
2014-Jul-20 05:33N 51°21' E 003°11'0 0.0
2014-Jul-20 04:33N 51°21' E 003°11'0 0.0
2014-Jul-20 03:33N 51°21' E 003°11'0 0.0
2014-Jul-20 02:33N 51°21' E 003°11'0 0.0
2014-Jul-20 01:33N 51°21' E 003°11'0 0.0
2014-Jul-20 00:33N 51°21' E 003°11'0 0.0
2014-Jul-19 23:33N 51°21' E 003°11'0 0.0
2014-Jul-19 22:33N 51°21' E 003°11'  

Dump ship's entire track history